createdAt,value
2022-09-15T00:01:09.703Z,97090.53
2022-09-15T00:03:37.404Z,97086.78
2022-09-15T00:06:04.450Z,97090.31
2022-09-15T00:08:31.496Z,97097.94
2022-09-15T00:11:07.874Z,97088.56
2022-09-15T00:13:36.308Z,97083.59
2022-09-15T00:16:04.234Z,97079.66
2022-09-15T00:18:31.488Z,97068.78
2022-09-15T00:20:58.202Z,97064.22
2022-09-15T00:23:33.138Z,97061.31
2022-09-15T00:25:59.836Z,97060.91
2022-09-15T00:28:26.443Z,97061.56
2022-09-15T00:30:54.991Z,97058.50
2022-09-15T00:33:22.923Z,97053.69
2022-09-15T00:35:52.614Z,97055.19
2022-09-15T00:38:19.903Z,97050.81
2022-09-15T00:40:51.987Z,97051.53
2022-09-15T00:43:23.396Z,97051.53
2022-09-15T00:45:50.762Z,97043.56
2022-09-15T00:48:21.533Z,97036.06
2022-09-15T00:50:54.213Z,97035.03
2022-09-15T00:53:23.678Z,97032.13
2022-09-15T00:55:51.324Z,97021.72
2022-09-15T00:58:28.759Z,97026.31
2022-09-15T01:01:00.654Z,97023.13
2022-09-15T01:03:30.515Z,97016.56
2022-09-15T01:06:01.022Z,97012.72
2022-09-15T01:08:49.233Z,96999.47
2022-09-15T01:11:17.178Z,96992.38
2022-09-15T01:13:44.692Z,96991.97
2022-09-15T01:16:32.722Z,96993.31
2022-09-15T01:19:12.848Z,96989.34
2022-09-15T01:21:50.439Z,96987.47
2022-09-15T01:24:41.726Z,96977.34
2022-09-15T01:27:40.549Z,96991.97
2022-09-15T01:30:06.607Z,96997.63
2022-09-15T01:33:06.707Z,96991.31
2022-09-15T01:35:42.309Z,96984.22
2022-09-15T01:38:23.921Z,96985.41
2022-09-15T01:40:59.036Z,96989.84
2022-09-15T01:43:29.867Z,96991.53
2022-09-15T01:45:59.875Z,96981.31
2022-09-15T01:48:28.318Z,96980.06
2022-09-15T01:50:58.787Z,96978.19
2022-09-15T01:53:28.815Z,96985.34
2022-09-15T01:56:06.713Z,96984.28
2022-09-15T01:58:34.777Z,96981.09
2022-09-15T02:01:20.298Z,96971.81
2022-09-15T02:04:01.236Z,96962.94
2022-09-15T02:06:37.425Z,96961.97
2022-09-15T02:09:18.145Z,96957.78
2022-09-15T02:11:58.250Z,96952.34
2022-09-15T02:15:05.535Z,96953.16
2022-09-15T02:17:35.514Z,96942.94
2022-09-15T02:20:17.844Z,96946.31
2022-09-15T02:22:54.007Z,96953.00
2022-09-15T02:25:28.771Z,96942.13
2022-09-15T02:28:00.442Z,96948.78
2022-09-15T02:30:29.269Z,96942.66
2022-09-15T02:32:59.529Z,96947.44
2022-09-15T02:35:29.767Z,96947.06
2022-09-15T02:37:56.931Z,96941.47
2022-09-15T02:40:24.313Z,96946.06
2022-09-15T02:42:56.443Z,96942.66
2022-09-15T02:45:24.992Z,96941.47
2022-09-15T02:47:51.778Z,96947.56
2022-09-15T02:50:19.355Z,96947.38
2022-09-15T02:52:46.295Z,96943.25
2022-09-15T02:55:13.089Z,96932.19
2022-09-15T02:57:40.848Z,96936.75
2022-09-15T03:00:15.087Z,96935.72
2022-09-15T03:02:44.929Z,96937.41
2022-09-15T03:05:15.243Z,96931.97
2022-09-15T03:07:42.349Z,96929.47
2022-09-15T03:10:12.120Z,96934.03
2022-09-15T03:12:42.670Z,96926.28
2022-09-15T03:15:11.825Z,96928.34
2022-09-15T03:17:41.693Z,96929.34
2022-09-15T03:20:11.105Z,96936.69
2022-09-15T03:22:38.349Z,96934.44
2022-09-15T03:25:05.704Z,96934.03
2022-09-15T03:27:33.145Z,96930.13
2022-09-15T03:30:00.865Z,96928.03
2022-09-15T03:32:27.609Z,96933.75
2022-09-15T03:34:58.217Z,96935.91
2022-09-15T03:37:25.573Z,96922.59
2022-09-15T03:39:52.244Z,96927.00
2022-09-15T03:42:19.931Z,96931.78
2022-09-15T03:44:46.552Z,96926.53
2022-09-15T03:47:13.278Z,96926.53
2022-09-15T03:49:39.954Z,96925.88
2022-09-15T03:52:06.670Z,96922.97
2022-09-15T03:54:33.377Z,96924.19
2022-09-15T03:57:00.029Z,96927.94
2022-09-15T03:59:26.694Z,96926.53
2022-09-15T04:01:55.079Z,96923.97
2022-09-15T04:04:21.796Z,96925.41
2022-09-15T04:06:48.436Z,96931.88
2022-09-15T04:09:15.306Z,96928.31
2022-09-15T04:11:42.883Z,96919.13
2022-09-15T04:14:09.550Z,96922.50
2022-09-15T04:16:36.690Z,96921.25
2022-09-15T04:19:03.660Z,96928.41
2022-09-15T04:21:32.126Z,96931.59
2022-09-15T04:23:59.099Z,96931.59
2022-09-15T04:26:32.463Z,96924.09
2022-09-15T04:29:04.202Z,96929.34
2022-09-15T04:31:32.479Z,96926.41
2022-09-15T04:33:59.857Z,96926.22
2022-09-15T04:36:28.463Z,96920.59
2022-09-15T04:38:55.856Z,96925.00
2022-09-15T04:41:23.341Z,96927.53
2022-09-15T04:43:50.489Z,96916.28
2022-09-15T04:46:18.644Z,96919.81
2022-09-15T04:48:46.295Z,96922.38
2022-09-15T04:51:19.239Z,96913.44
2022-09-15T04:53:48.892Z,96915.13
2022-09-15T04:56:17.275Z,96914.06
2022-09-15T04:58:49.334Z,96918.50
2022-09-15T05:01:28.821Z,96908.72
2022-09-15T05:03:56.626Z,96908.31
2022-09-15T05:06:27.917Z,96909.44
2022-09-15T05:08:56.903Z,96906.34
2022-09-15T05:11:25.705Z,96897.16
2022-09-15T05:13:52.866Z,96904.94
2022-09-15T05:16:22.140Z,96902.88
2022-09-15T05:18:50.325Z,96911.69
2022-09-15T05:21:20.028Z,96916.94
2022-09-15T05:23:47.549Z,96917.78
2022-09-15T05:26:17.843Z,96916.47
2022-09-15T05:28:45.063Z,96920.25
2022-09-15T05:31:18.126Z,96923.63
2022-09-15T05:33:46.235Z,96914.41
2022-09-15T05:36:17.501Z,96917.78
2022-09-15T05:38:45.076Z,96910.91
2022-09-15T05:41:13.947Z,96915.78
2022-09-15T05:43:40.615Z,96921.03
2022-09-15T05:46:08.104Z,96926.28
2022-09-15T05:48:35.358Z,96937.63
2022-09-15T05:51:03.424Z,96936.22
2022-09-15T05:53:31.239Z,96938.34
2022-09-15T05:55:59.565Z,96944.63
2022-09-15T05:58:27.536Z,96940.22
2022-09-15T06:00:55.159Z,96950.25
2022-09-15T06:03:27.530Z,96953.19
2022-09-15T06:06:01.454Z,96946.66
2022-09-15T06:08:33.343Z,96953.72
2022-09-15T06:11:08.917Z,96963.94
2022-09-15T06:13:36.544Z,96971.66
2022-09-15T06:16:07.012Z,96969.31
2022-09-15T06:18:36.009Z,96984.34
2022-09-15T06:21:11.571Z,96983.88
2022-09-15T06:23:38.566Z,96999.56
2022-09-15T06:26:07.440Z,97001.25
2022-09-15T06:28:34.057Z,97010.59
2022-09-15T06:31:00.830Z,97013.31
2022-09-15T06:33:27.729Z,97023.56
2022-09-15T06:35:54.540Z,97019.34
2022-09-15T06:38:21.269Z,97038.56
2022-09-15T06:40:59.029Z,97044.84
2022-09-15T06:43:26.346Z,97056.78
2022-09-15T06:45:53.049Z,97057.63
2022-09-15T06:48:24.829Z,97075.44
2022-09-15T06:50:56.064Z,97082.22
2022-09-15T06:53:22.934Z,97089.53
2022-09-15T06:55:50.558Z,97085.13
2022-09-15T06:58:17.430Z,97085.31
2022-09-15T07:00:44.211Z,97096.19
2022-09-15T07:03:11.052Z,97107.44
2022-09-15T07:05:37.876Z,97114.78
2022-09-15T07:08:04.520Z,97129.22
2022-09-15T07:10:31.262Z,97135.72
2022-09-15T07:12:59.372Z,97144.91
2022-09-15T07:15:27.569Z,97150.34
2022-09-15T07:17:54.276Z,97156.44
2022-09-15T07:20:21.084Z,97161.03
2022-09-15T07:22:47.743Z,97161.88
2022-09-15T07:25:14.561Z,97156.25
2022-09-15T07:27:41.181Z,97153.34
2022-09-15T07:30:08.717Z,97149.25
2022-09-15T07:32:35.512Z,97150.19
2022-09-15T07:35:02.672Z,97160.34
2022-09-15T07:37:29.574Z,97169.06
2022-09-15T07:39:56.258Z,97187.00
2022-09-15T07:42:22.949Z,97190.94
2022-09-15T07:44:49.557Z,97188.75
2022-09-15T07:47:16.598Z,97202.09
2022-09-15T07:49:43.505Z,97208.53
2022-09-15T07:52:10.358Z,97208.91
2022-09-15T07:54:37.007Z,97215.38
2022-09-15T07:57:05.964Z,97222.84
2022-09-15T07:59:33.162Z,97241.25
2022-09-15T08:01:59.871Z,97234.56
2022-09-15T08:04:26.551Z,97237.69
2022-09-15T08:06:53.188Z,97234.97
2022-09-15T08:09:20.008Z,97240.88
2022-09-15T08:11:46.673Z,97242.38
2022-09-15T08:14:13.339Z,97248.28
2022-09-15T08:16:40.079Z,97255.50
2022-09-15T08:19:06.799Z,97267.09
2022-09-15T08:21:33.538Z,97263.34
2022-09-15T08:24:01.369Z,97265.72
2022-09-15T08:26:29.277Z,97272.00
2022-09-15T08:28:56.121Z,97275.94
2022-09-15T08:31:24.518Z,97286.63
2022-09-15T08:33:53.330Z,97291.78
2022-09-15T08:36:20.568Z,97291.09
2022-09-15T08:38:47.578Z,97289.97
2022-09-15T08:41:20.422Z,97294.88
2022-09-15T08:44:13.220Z,97298.84
2022-09-15T08:46:50.685Z,97304.66
2022-09-15T08:49:47.436Z,97298.19
2022-09-15T08:52:26.834Z,97296.94
2022-09-15T08:54:57.881Z,97294.31
2022-09-15T08:57:26.601Z,97301.25
2022-09-15T08:59:55.025Z,97296.09
2022-09-15T09:02:31.643Z,97296.31
2022-09-15T09:05:04.031Z,97298.69
2022-09-15T09:07:41.960Z,97302.25
2022-09-15T09:10:11.620Z,97299.53
2022-09-15T09:13:09.949Z,97303.13
2022-09-15T09:15:48.692Z,97298.97
2022-09-15T09:18:49.813Z,97291.34
2022-09-15T09:21:26.726Z,97286.59
2022-09-15T09:23:57.780Z,97289.88
2022-09-15T09:26:25.500Z,97291.03
2022-09-15T09:29:06.576Z,97297.50
2022-09-15T09:31:36.085Z,97290.41
2022-09-15T09:34:20.000Z,97291.78
2022-09-15T09:36:54.976Z,97299.00
2022-09-15T09:39:22.780Z,97296.13
2022-09-15T09:41:51.237Z,97291.38
2022-09-15T09:44:19.330Z,97293.31
2022-09-15T09:46:47.039Z,97293.53
2022-09-15T09:49:23.639Z,97292.72
2022-09-15T09:51:53.186Z,97300.38
2022-09-15T09:54:25.159Z,97300.19
2022-09-15T09:56:53.733Z,97294.06
2022-09-15T09:59:50.566Z,97295.97
2022-09-15T10:02:21.465Z,97287.69
2022-09-15T10:04:49.387Z,97275.88
2022-09-15T10:07:20.184Z,97287.44
2022-09-15T10:09:53.633Z,97277.53
2022-09-15T10:12:24.379Z,97279.81
2022-09-15T10:14:55.211Z,97283.44
2022-09-15T10:17:25.892Z,97278.78
2022-09-15T10:19:58.325Z,97275.16
2022-09-15T10:22:38.076Z,97271.97
2022-09-15T10:25:39.440Z,97277.84
2022-09-15T10:28:14.645Z,97269.44
2022-09-15T10:31:07.392Z,97261.88
2022-09-15T10:33:42.766Z,97262.50
2022-09-15T10:36:15.429Z,97266.72
2022-09-15T10:39:10.822Z,97274.25
2022-09-15T10:42:07.146Z,97271.84
2022-09-15T10:45:11.151Z,97272.59
2022-09-15T10:48:03.297Z,97275.19
2022-09-15T10:50:50.826Z,97276.47
2022-09-15T10:53:45.264Z,97276.22
2022-09-15T10:56:21.791Z,97268.22
2022-09-15T10:58:55.856Z,97277.97
2022-09-15T11:01:28.554Z,97269.97
2022-09-15T11:04:07.573Z,97267.88
2022-09-15T11:07:03.883Z,97266.41
2022-09-15T11:09:49.987Z,97272.41
2022-09-15T11:12:16.828Z,97269.69
2022-09-15T11:15:15.630Z,97261.78
2022-09-15T11:18:01.213Z,97271.53
2022-09-15T11:20:38.207Z,97260.75
2022-09-15T11:23:29.367Z,97257.78
2022-09-15T11:26:04.637Z,97254.31
2022-09-15T11:28:39.021Z,97249.94
2022-09-15T11:31:19.627Z,97246.13
2022-09-15T11:34:11.592Z,97250.81
2022-09-15T11:36:44.927Z,97242.31
2022-09-15T11:39:24.141Z,97242.22
2022-09-15T11:41:56.861Z,97222.03
2022-09-15T11:44:49.863Z,97221.44
2022-09-15T11:47:24.502Z,97222.53
2022-09-15T11:50:11.329Z,97217.38
2022-09-15T11:52:55.284Z,97219.13
2022-09-15T11:55:45.235Z,97219.16
2022-09-15T11:58:30.007Z,97218.44
2022-09-15T12:01:11.676Z,97217.38
2022-09-15T12:03:43.375Z,97222.00
2022-09-15T12:06:16.257Z,97225.38
2022-09-15T12:09:01.468Z,97225.38
2022-09-15T12:13:59.555Z,97224.44
2022-09-15T12:16:27.730Z,97227.97
2022-09-15T12:19:18.646Z,97227.06
2022-09-15T12:21:59.518Z,97221.13
2022-09-15T12:24:44.016Z,97220.78
2022-09-15T12:27:17.056Z,97224.50
2022-09-15T12:29:55.362Z,97229.31
2022-09-15T12:32:25.803Z,97231.63
2022-09-15T12:35:04.514Z,97236.22
2022-09-15T12:37:39.858Z,97239.03
2022-09-15T12:40:25.253Z,97234.56
2022-09-15T12:42:52.645Z,97251.06
2022-09-15T12:45:29.620Z,97247.22
2022-09-15T12:48:07.165Z,97242.72
2022-09-15T12:50:41.427Z,97232.13
2022-09-15T12:53:28.637Z,97233.25
2022-09-15T12:56:01.851Z,97233.84
2022-09-15T12:58:49.255Z,97232.69
2022-09-15T13:01:19.393Z,97230.34
2022-09-15T13:03:46.513Z,97223.41
2022-09-15T13:07:09.296Z,97217.94
2022-09-15T13:09:55.933Z,97210.06
2022-09-15T13:12:26.586Z,97204.03
2022-09-15T13:14:56.650Z,97202.72
2022-09-15T13:17:26.057Z,97205.25
2022-09-15T13:20:01.736Z,97206.75
2022-09-15T13:22:37.838Z,97202.63
2022-09-15T13:25:15.906Z,97211.47
2022-09-15T13:27:45.386Z,97220.69
2022-09-15T13:30:21.529Z,97219.16
2022-09-15T13:40:47.371Z,97205.03
2022-09-15T13:43:53.890Z,97206.47
2022-09-15T13:46:33.993Z,97229.97
2022-09-15T13:49:19.483Z,97219.06
2022-09-15T13:51:56.666Z,97219.06
2022-09-15T13:54:23.308Z,97228.47
2022-09-15T13:56:53.344Z,97220.22
2022-09-15T13:59:25.691Z,97210.53
2022-09-15T14:01:54.008Z,97207.16
2022-09-15T14:04:25.727Z,97205.28
2022-09-15T14:06:58.514Z,97195.41
2022-09-15T14:09:35.395Z,97197.09
2022-09-15T14:12:05.080Z,97196.91
2022-09-15T14:14:35.251Z,97201.72
2022-09-15T14:17:01.976Z,97210.63
2022-09-15T14:19:37.201Z,97204.16
2022-09-15T14:22:28.310Z,97197.41
2022-09-15T14:24:57.959Z,97191.50
2022-09-15T14:27:29.128Z,97179.94
2022-09-15T14:30:00.385Z,97180.97
2022-09-15T14:32:28.895Z,97179.94
2022-09-15T14:35:00.774Z,97181.59
2022-09-15T14:37:29.618Z,97165.09
2022-09-15T14:40:02.116Z,97162.34
2022-09-15T14:42:32.637Z,97160.50
2022-09-15T14:48:01.534Z,97156.91
2022-09-15T14:50:33.341Z,97156.25
2022-09-15T14:53:07.034Z,97159.16
2022-09-15T14:55:40.522Z,97156.44
2022-09-15T14:58:21.911Z,97147.44
2022-09-15T15:00:54.771Z,97145.34
2022-09-15T15:03:39.572Z,97143.28
2022-09-15T15:06:35.621Z,97149.78
2022-09-15T15:09:30.295Z,97164.81
2022-09-15T15:12:06.509Z,97170.81
2022-09-15T15:14:36.179Z,97170.53
2022-09-15T15:17:06.071Z,97163.13
2022-09-15T15:19:39.196Z,97165.78
2022-09-15T15:22:20.119Z,97167.56
2022-09-15T15:24:49.777Z,97172.94
2022-09-15T15:27:34.399Z,97180.97
2022-09-15T15:30:31.858Z,97183.28
2022-09-15T15:33:03.031Z,97180.28
2022-09-15T15:35:30.940Z,97194.28
2022-09-15T15:38:27.193Z,97202.31
2022-09-15T15:41:05.456Z,97202.88
2022-09-15T15:43:32.350Z,97197.78
2022-09-15T15:46:01.875Z,97205.88
2022-09-15T15:48:35.427Z,97217.75
2022-09-15T15:51:05.898Z,97206.88
2022-09-15T15:53:32.668Z,97226.75
2022-09-15T15:56:01.273Z,97215.44
2022-09-15T15:58:28.266Z,97215.78
2022-09-15T16:00:56.931Z,97212.00
2022-09-15T16:03:24.745Z,97211.34
2022-09-15T16:05:58.500Z,97207.97
2022-09-15T16:08:30.200Z,97210.50
2022-09-15T16:10:57.557Z,97231.06
2022-09-15T16:13:26.012Z,97234.66
2022-09-15T16:15:54.151Z,97236.50
2022-09-15T16:18:21.947Z,97231.06
2022-09-15T16:20:48.836Z,97228.34
2022-09-15T16:23:18.834Z,97237.38
2022-09-15T16:25:48.372Z,97240.25
2022-09-15T16:28:15.496Z,97251.50
2022-09-15T16:30:42.996Z,97245.41
2022-09-15T16:33:21.464Z,97243.59
2022-09-15T16:35:55.195Z,97243.09
2022-09-15T16:38:25.596Z,97235.50
2022-09-15T16:40:53.375Z,97247.09
2022-09-15T16:43:22.283Z,97247.81
2022-09-15T16:45:49.875Z,97257.34
2022-09-15T16:48:16.698Z,97252.81
2022-09-15T16:51:01.662Z,97257.09
2022-09-15T16:53:33.016Z,97262.88
2022-09-15T16:56:00.008Z,97270.53
2022-09-15T16:58:26.773Z,97270.38
2022-09-15T17:00:53.810Z,97267.38
2022-09-15T17:03:24.079Z,97261.25
2022-09-15T17:05:53.299Z,97260.38
2022-09-15T17:08:23.586Z,97267.22
2022-09-15T17:10:50.818Z,97262.50
2022-09-15T17:13:20.443Z,97268.75
2022-09-15T17:15:48.832Z,97264.38
2022-09-15T17:18:16.686Z,97258.97
2022-09-15T17:20:46.218Z,97253.22
2022-09-15T17:23:20.761Z,97254.06
2022-09-15T17:25:53.574Z,97255.94
2022-09-15T17:28:22.895Z,97254.44
2022-09-15T17:30:57.451Z,97258.81
2022-09-15T17:33:26.750Z,97254.22
2022-09-15T17:35:54.557Z,97261.53
2022-09-15T17:38:22.653Z,97261.53
2022-09-15T17:40:50.584Z,97259.66
2022-09-15T17:43:19.779Z,97261.69
2022-09-15T17:45:47.325Z,97260.38
2022-09-15T17:48:14.043Z,97258.84
2022-09-15T17:50:42.096Z,97259.03
2022-09-15T17:53:15.562Z,97260.72
2022-09-15T17:55:43.967Z,97262.75
2022-09-15T17:58:10.879Z,97268.38
2022-09-15T18:00:40.217Z,97262.94
2022-09-15T18:03:19.899Z,97257.31
2022-09-15T18:05:46.797Z,97259.88
2022-09-15T18:08:16.825Z,97268.88
2022-09-15T18:10:44.025Z,97267.16
2022-09-15T18:13:17.518Z,97269.22
2022-09-15T18:15:44.663Z,97277.03
2022-09-15T18:18:20.668Z,97284.88
2022-09-15T18:20:48.476Z,97277.75
2022-09-15T18:23:19.794Z,97283.88
2022-09-15T18:25:47.382Z,97283.53
2022-09-15T18:28:17.716Z,97270.31
2022-09-15T18:30:47.142Z,97266.22
2022-09-15T18:33:22.576Z,97264.72
2022-09-15T18:35:51.758Z,97263.69
2022-09-15T18:38:20.336Z,97273.19
2022-09-15T18:40:53.723Z,97280.66
2022-09-15T18:43:22.930Z,97278.63
2022-09-15T18:45:50.523Z,97281.50
2022-09-15T18:48:17.937Z,97275.91
2022-09-15T18:50:45.742Z,97272.00
2022-09-15T18:53:12.975Z,97270.16
2022-09-15T18:55:42.360Z,97263.69
2022-09-15T18:58:10.276Z,97273.34
2022-09-15T19:00:37.627Z,97275.22
2022-09-15T19:03:07.034Z,97279.97
2022-09-15T19:05:34.293Z,97286.59
2022-09-15T19:08:02.067Z,97283.22
2022-09-15T19:10:29.446Z,97295.44
2022-09-15T19:12:56.260Z,97293.88
2022-09-15T19:15:24.169Z,97303.91
2022-09-15T19:17:51.004Z,97294.94
2022-09-15T19:20:18.119Z,97301.34
2022-09-15T19:22:44.916Z,97298.28
2022-09-15T19:25:12.299Z,97308.31
2022-09-15T19:27:39.953Z,97312.06
2022-09-15T19:30:10.250Z,97312.88
2022-09-15T19:32:38.469Z,97309.00
2022-09-15T19:35:05.909Z,97303.56
2022-09-15T19:37:37.445Z,97300.84
2022-09-15T19:40:08.430Z,97306.44
2022-09-15T19:42:35.865Z,97310.00
2022-09-15T19:45:02.793Z,97317.44
2022-09-15T19:47:29.788Z,97323.75
2022-09-15T19:49:56.474Z,97320.84
2022-09-15T19:52:23.111Z,97328.81
2022-09-15T19:54:49.877Z,97315.63
2022-09-15T19:57:16.636Z,97321.53
2022-09-15T19:59:44.852Z,97318.28
2022-09-15T20:02:12.631Z,97319.66
2022-09-15T20:07:24.914Z,97331.84
2022-09-15T20:09:53.448Z,97330.66
2022-09-15T20:14:48.116Z,97316.75
2022-09-15T20:17:15.696Z,97316.75
2022-09-15T20:19:43.236Z,97318.09
2022-09-15T20:22:10.180Z,97327.72
2022-09-15T20:24:38.233Z,97322.81
2022-09-15T20:27:05.793Z,97325.84
2022-09-15T20:29:33.775Z,97326.16
2022-09-15T20:32:00.618Z,97324.50
2022-09-15T20:34:27.672Z,97315.84
2022-09-15T20:36:55.015Z,97313.28
2022-09-15T20:39:22.932Z,97312.91
2022-09-15T20:41:50.333Z,97321.06
2022-09-15T20:44:17.258Z,97317.81
2022-09-15T20:46:44.286Z,97320.69
2022-09-15T20:49:12.127Z,97326.41
2022-09-15T20:51:40.207Z,97330.47
2022-09-15T20:54:08.589Z,97340.78
2022-09-15T20:56:36.258Z,97349.25
2022-09-15T20:59:04.690Z,97345.34
2022-09-15T21:01:37.605Z,97346.66
2022-09-15T21:04:05.983Z,97352.41
2022-09-15T21:06:33.022Z,97353.56
2022-09-15T21:09:00.498Z,97349.31
2022-09-15T21:11:29.203Z,97353.06
2022-09-15T21:13:56.985Z,97353.06
2022-09-15T21:16:26.654Z,97362.31
2022-09-15T21:18:54.219Z,97369.22
2022-09-15T21:21:25.297Z,97362.63
2022-09-15T21:23:54.900Z,97364.13
2022-09-15T21:26:24.547Z,97369.97
2022-09-15T21:28:52.006Z,97372.50
2022-09-15T21:31:26.259Z,97371.81
2022-09-15T21:33:54.416Z,97375.81
2022-09-15T21:36:24.000Z,97381.88
2022-09-15T21:38:53.162Z,97385.19
2022-09-15T21:41:22.402Z,97389.53
2022-09-15T21:43:54.852Z,97390.16
2022-09-15T21:46:25.374Z,97393.50
2022-09-15T21:48:52.587Z,97390.22
2022-09-15T21:51:24.758Z,97392.25
2022-09-15T21:53:54.833Z,97395.94
2022-09-15T21:56:22.179Z,97402.22
2022-09-15T21:58:49.193Z,97411.31
2022-09-15T22:01:25.877Z,97413.03
2022-09-15T22:03:58.575Z,97406.59
2022-09-15T22:06:31.794Z,97407.28
2022-09-15T22:09:00.328Z,97417.84
2022-09-15T22:11:27.475Z,97415.69
2022-09-15T22:13:54.388Z,97417.91
2022-09-15T22:16:24.444Z,97408.47
2022-09-15T22:18:52.116Z,97420.69
2022-09-15T22:21:22.964Z,97425.09
2022-09-15T22:23:51.315Z,97416.00
2022-09-15T22:26:21.500Z,97420.38
2022-09-15T22:28:48.993Z,97416.84
2022-09-15T22:31:18.554Z,97425.25
2022-09-15T22:33:46.130Z,97427.41
2022-09-15T22:36:18.480Z,97426.72
2022-09-15T22:38:46.283Z,97431.59
2022-09-15T22:41:16.250Z,97435.16
2022-09-15T22:43:49.151Z,97442.25
2022-09-15T22:46:18.032Z,97439.56
2022-09-15T22:48:44.858Z,97445.97
2022-09-15T22:51:13.024Z,97449.00
2022-09-15T22:53:39.858Z,97450.16
2022-09-15T22:56:17.255Z,97447.59
2022-09-15T22:58:44.467Z,97441.91
2022-09-15T23:01:16.965Z,97452.94
2022-09-15T23:03:48.136Z,97454.47
2022-09-15T23:06:14.902Z,97466.84
2022-09-15T23:08:42.616Z,97455.84
2022-09-15T23:11:12.072Z,97462.97
2022-09-15T23:13:40.039Z,97455.56
2022-09-15T23:16:08.036Z,97447.44
2022-09-15T23:18:35.416Z,97450.28
2022-09-15T23:21:05.327Z,97449.75
2022-09-15T23:23:31.808Z,97443.63
2022-09-15T23:25:58.438Z,97447.81
2022-09-15T23:28:27.007Z,97448.00
2022-09-15T23:30:55.313Z,97458.81
2022-09-15T23:33:23.384Z,97467.78
2022-09-15T23:35:50.407Z,97466.06
2022-09-15T23:38:19.019Z,97459.97
2022-09-15T23:40:47.314Z,97458.41
2022-09-15T23:43:15.197Z,97467.81
2022-09-15T23:45:43.075Z,97471.66
2022-09-15T23:48:10.006Z,97476.22
2022-09-15T23:50:38.215Z,97478.38
2022-09-15T23:53:05.478Z,97471.44
2022-09-15T23:55:32.547Z,97476.84
2022-09-15T23:57:59.260Z,97467.72
